Pelham, Georgia
Current Conditions -  °F | °C
As of 9:15 AM on Sunday 21 Dec 2014 (Local Time) from KMGR Reporting Station
Haze Haze  
Wind Chill: 54°   Ceiling: 500
Heat Index: 54°   Visibility: 4mi
Dew Point: 54°   Wind: 5mph
Humidity: 100%   Direction: 70°ENE
Pressure: 30.15"   Gusts: NA
Location:  31.13°N, 84.15°W
Report Text: KMGR 211415Z AUTO 07004KT 4SM BR OVC005 12/12 A3015 RMK AO2 LTG DSNT SW
Loading
Personal Weather Stations






























Interactive Weather Map New forecast layout! Learn more

10-Day Weather Forecast

Advertisements
Track Severe Weather on mobile